Pagrindinis puslapis
METAR-TAF:

METAR-TAF

Oro uostai :

Avenger Field

Sweetwater, Teksasas, Jungtinės Amerikos Valstijos

platuma: 32-28-02N, ilguma: 100-27-59W, Aukštis: 725 m

Dabartinis oras

Ataskaita buvo paskelbta 28 minutes, ne 11:15 UTC
Ramus vėjas
Temperatūra 17°C
Drėgmė 77%
Slėgis 1024 hPa
Matomumas: 16.1 km
Giedras dangus

METAR: KSWW 291115Z AUTO 00000KT 10SM CLR 17/13 A3024 RMK AO2 T01690132

Laikas: 06:43 (11:43 UTC)


TAF: trūkstamas

Orai ataskaitas ir orų prognozės (METAR, TAF).

turimą stotys yra geltonos ir raudonos taškus žemėlapyje.

Perkelti pele per norėdami pamatyti stoties vardą.

Tada spustelėkite, norėdami matyti oro stebėjimo ir prognozės.

Norėdami pakeisti žemėlapį: spustelėkite ant žalios mygtukų su juodo kryžiaus žemyn,; žalią mygtuką su brūkšneliu, jei norite nutolinti; arba žalių rodyklių gretimoms žemėlapius.


METAR-TAF: